KLEW/LEW METAR and TAF weather

Enter ICAO airport designator
Station Type Date Time Source
KLEW METAR 2020/06/03 13:56 UTC NOAA

KLEW 031356Z AUTO 34003KT 10SM BKN060 OVC075 13/11 A2961 RMK AO2 SLP032 T01330106


Station Type Date Time Source
KLEW Decoded METAR 2020/06/03 13:56 UTC NOAA

Auburn-Lewiston, ME, United States (KLEW) 44-03N 070-17W
Jun 03, 2020 - 09:56 AM EDT / 2020.06.03 1356 UTC
Wind: from the NNW (340 degrees) at 3 MPH (3 KT):0
Visibility: 10 mile(s):0
Sky conditions: overcast
Temperature: 55.9 F (13.3 C)
Dew Point: 51.1 F (10.6 C)
Relative Humidity: 83%
Pressure (altimeter): 29.61 in. Hg (1002 hPa)
ob: KLEW 031356Z AUTO 34003KT 10SM BKN060 OVC075 13/11 A2961 RMK AO2 SLP032 T01330106
cycle: 14

Station Type Date Time Source
KLEW TAF UTC NOAA

Error!

Example: see airport list